createdAt,value
2018-06-04T00:00:24.956Z,33.13
2018-06-04T00:02:53.611Z,30.30
2018-06-04T00:05:22.260Z,34.17
2018-06-04T00:07:50.911Z,32.53
2018-06-04T00:10:19.554Z,31.77
2018-06-04T00:12:48.226Z,34.53
2018-06-04T00:15:16.879Z,31.90
2018-06-04T00:17:45.507Z,33.03
2018-06-04T00:20:14.189Z,32.67
2018-06-04T00:22:43.434Z,31.40
2018-06-04T00:25:12.135Z,30.27
2018-06-04T00:27:40.772Z,33.63
2018-06-04T00:30:09.403Z,33.03
2018-06-04T00:32:38.075Z,35.17
2018-06-04T00:35:06.833Z,37.77
2018-06-04T00:37:35.463Z,36.73
2018-06-04T00:40:04.212Z,36.00
2018-06-04T00:42:33.224Z,38.47
2018-06-04T00:45:01.864Z,38.37
2018-06-04T00:47:30.544Z,38.40
2018-06-04T00:49:59.162Z,36.73
2018-06-04T00:52:27.845Z,40.80
2018-06-04T00:54:56.471Z,38.83
2018-06-04T00:57:25.137Z,41.17
2018-06-04T00:59:53.804Z,40.10
2018-06-04T01:02:22.461Z,39.50
2018-06-04T01:04:51.125Z,39.30
2018-06-04T01:07:19.751Z,39.30
2018-06-04T01:09:48.419Z,39.33
2018-06-04T01:12:17.092Z,38.73
2018-06-04T01:14:45.859Z,40.23
2018-06-04T01:17:14.625Z,37.03
2018-06-04T01:19:43.315Z,38.37
2018-06-04T01:22:11.965Z,36.70
2018-06-04T01:24:40.687Z,40.43
2018-06-04T01:27:09.335Z,40.47
2018-06-04T01:29:38.065Z,38.73
2018-06-04T01:32:06.779Z,39.30
2018-06-04T01:34:35.451Z,36.57
2018-06-04T01:37:04.222Z,38.03
2018-06-04T01:39:32.872Z,37.80
2018-06-04T01:42:01.508Z,38.03
2018-06-04T01:44:30.151Z,41.40
2018-06-04T01:46:58.828Z,41.23
2018-06-04T01:49:27.495Z,42.70
2018-06-04T01:51:56.275Z,42.97
2018-06-04T01:54:24.884Z,44.83
2018-06-04T01:56:53.515Z,43.17
2018-06-04T01:59:22.190Z,42.47
2018-06-04T02:01:50.893Z,44.60
2018-06-04T02:04:19.565Z,46.13
2018-06-04T02:06:48.296Z,42.33
2018-06-04T02:09:17.179Z,39.70
2018-06-04T02:11:45.772Z,36.00
2018-06-04T02:14:14.433Z,30.50
2018-06-04T02:16:43.077Z,27.97
2018-06-04T02:19:11.720Z,23.57
2018-06-04T02:21:40.349Z,21.10
2018-06-04T02:24:09.327Z,22.33
2018-06-04T02:26:37.915Z,20.63
2018-06-04T02:29:06.663Z,19.97
2018-06-04T02:31:35.360Z,20.10
2018-06-04T02:34:04.029Z,21.00
2018-06-04T02:36:32.676Z,20.87
2018-06-04T02:39:01.344Z,20.17
2018-06-04T02:41:29.962Z,18.80
2018-06-04T02:43:58.646Z,19.00
2018-06-04T02:46:27.288Z,18.20
2018-06-04T02:48:55.911Z,18.57
2018-06-04T02:51:24.519Z,19.77
2018-06-04T02:53:53.186Z,18.40
2018-06-04T02:56:21.829Z,20.00
2018-06-04T02:58:50.480Z,19.50
2018-06-04T03:01:19.128Z,19.20
2018-06-04T03:03:47.816Z,18.30
2018-06-04T03:06:16.485Z,18.17
2018-06-04T03:08:45.104Z,18.37
2018-06-04T03:11:13.785Z,18.87
2018-06-04T03:13:42.454Z,18.60
2018-06-04T03:16:11.099Z,20.27
2018-06-04T03:18:39.711Z,18.73
2018-06-04T03:21:08.379Z,19.23
2018-06-04T03:23:37.137Z,18.40
2018-06-04T03:26:05.780Z,19.17
2018-06-04T03:28:34.387Z,19.03
2018-06-04T03:31:03.065Z,18.03
2018-06-04T03:33:31.776Z,17.43
2018-06-04T03:36:00.418Z,15.70
2018-06-04T03:38:29.085Z,17.17
2018-06-04T03:40:57.712Z,18.27
2018-06-04T03:43:26.399Z,16.33
2018-06-04T03:45:55.020Z,17.57
2018-06-04T03:48:23.708Z,16.13
2018-06-04T03:50:52.380Z,15.70
2018-06-04T03:53:21.004Z,17.70
2018-06-04T03:55:49.663Z,17.60
2018-06-04T03:58:18.290Z,16.10
2018-06-04T04:00:46.969Z,16.03
2018-06-04T04:03:15.585Z,16.93
2018-06-04T04:05:44.268Z,15.33
2018-06-04T04:08:12.963Z,16.00
2018-06-04T04:10:41.603Z,17.77
2018-06-04T04:13:10.287Z,15.63
2018-06-04T04:15:38.982Z,15.70
2018-06-04T04:18:07.594Z,17.27
2018-06-04T04:20:36.444Z,15.97
2018-06-04T04:23:05.284Z,15.83
2018-06-04T04:25:33.949Z,17.20
2018-06-04T04:28:02.568Z,17.17
2018-06-04T04:30:31.190Z,15.60
2018-06-04T04:32:59.817Z,15.47
2018-06-04T04:35:28.438Z,15.17
2018-06-04T04:37:57.119Z,16.67
2018-06-04T04:40:25.744Z,16.73
2018-06-04T04:42:54.496Z,17.40
2018-06-04T04:45:23.213Z,16.50
2018-06-04T04:47:51.927Z,16.37
2018-06-04T04:50:20.576Z,16.30
2018-06-04T04:52:49.223Z,15.93
2018-06-04T04:55:17.843Z,15.47
2018-06-04T04:57:46.509Z,16.90
2018-06-04T05:00:15.179Z,16.10
2018-06-04T05:02:43.948Z,17.33
2018-06-04T05:05:12.568Z,17.97
2018-06-04T05:07:41.213Z,16.90
2018-06-04T05:10:09.870Z,18.63
2018-06-04T05:12:38.555Z,18.70
2018-06-04T05:15:07.217Z,18.63
2018-06-04T05:17:35.860Z,18.03
2018-06-04T05:20:04.488Z,19.33
2018-06-04T05:22:33.184Z,19.23
2018-06-04T05:25:01.926Z,21.67
2018-06-04T05:27:30.539Z,20.27
2018-06-04T05:29:59.320Z,21.03
2018-06-04T05:32:27.980Z,21.20
2018-06-04T05:34:56.584Z,22.37
2018-06-04T05:37:25.247Z,20.00
2018-06-04T05:39:53.888Z,23.20
2018-06-04T05:42:22.546Z,21.57
2018-06-04T05:44:51.210Z,21.47
2018-06-04T05:47:19.851Z,21.33
2018-06-04T05:49:48.473Z,24.07
2018-06-04T05:52:17.113Z,22.07
2018-06-04T05:54:45.711Z,20.57
2018-06-04T05:57:14.356Z,22.93
2018-06-04T05:59:43.020Z,23.67
2018-06-04T06:02:11.652Z,22.57
2018-06-04T06:04:40.304Z,24.43
2018-06-04T06:07:09.011Z,23.57
2018-06-04T06:09:37.655Z,25.47
2018-06-04T06:12:06.332Z,22.20
2018-06-04T06:14:35.072Z,22.90
2018-06-04T06:17:03.715Z,24.20
2018-06-04T06:19:32.932Z,26.20
2018-06-04T06:22:01.596Z,24.20
2018-06-04T06:24:30.217Z,27.33
2018-06-04T06:26:58.855Z,22.60
2018-06-04T06:29:27.459Z,27.03
2018-06-04T06:31:56.124Z,28.10
2018-06-04T06:34:24.780Z,25.27
2018-06-04T06:36:53.420Z,27.43
2018-06-04T06:39:22.067Z,24.30
2018-06-04T06:41:50.748Z,24.27
2018-06-04T06:44:19.420Z,24.80
2018-06-04T06:46:48.063Z,27.50
2018-06-04T06:49:16.661Z,27.40
2018-06-04T06:51:45.508Z,28.93
2018-06-04T06:54:14.651Z,27.63
2018-06-04T06:56:43.279Z,25.77
2018-06-04T06:59:12.532Z,28.23
2018-06-04T07:01:41.123Z,27.20
2018-06-04T07:04:09.801Z,29.53
2018-06-04T07:06:38.463Z,27.70
2018-06-04T07:09:08.452Z,25.03
2018-06-04T07:11:37.117Z,26.03
2018-06-04T07:14:05.923Z,25.27
2018-06-04T07:16:34.605Z,26.90
2018-06-04T07:19:03.308Z,25.40
2018-06-04T07:21:32.018Z,24.07
2018-06-04T07:24:00.615Z,26.43
2018-06-04T07:26:29.303Z,24.70
2018-06-04T07:28:58.003Z,23.63
2018-06-04T07:31:26.654Z,21.93
2018-06-04T07:33:55.632Z,24.00
2018-06-04T07:36:24.317Z,24.43
2018-06-04T07:38:52.945Z,23.43
2018-06-04T07:41:21.771Z,22.37
2018-06-04T07:43:50.328Z,21.87
2018-06-04T07:46:18.962Z,19.37
2018-06-04T07:48:47.617Z,19.43
2018-06-04T07:51:17.173Z,20.70
2018-06-04T07:53:45.825Z,15.87
2018-06-04T07:56:14.443Z,16.50
2018-06-04T07:58:43.108Z,18.60
2018-06-04T08:01:11.776Z,19.03
2018-06-04T08:03:40.481Z,20.97
2018-06-04T08:06:09.139Z,17.63
2018-06-04T08:08:37.740Z,18.40
2018-06-04T08:11:06.820Z,17.57
2018-06-04T08:13:35.442Z,16.93
2018-06-04T08:16:04.099Z,20.47
2018-06-04T08:18:32.709Z,17.90
2018-06-04T08:21:01.346Z,17.87
2018-06-04T08:23:29.986Z,18.57
2018-06-04T08:25:58.611Z,17.83
2018-06-04T08:28:27.259Z,17.97
2018-06-04T08:30:55.919Z,17.50
2018-06-04T08:33:24.563Z,18.40
2018-06-04T08:35:53.592Z,16.57
2018-06-04T08:38:22.246Z,17.93
2018-06-04T08:40:50.880Z,18.00
2018-06-04T08:43:19.515Z,20.60
2018-06-04T08:45:48.229Z,20.23
2018-06-04T08:48:16.850Z,17.90
2018-06-04T08:50:45.500Z,18.40
2018-06-04T08:53:14.156Z,19.20
2018-06-04T08:55:42.824Z,17.53
2018-06-04T08:58:11.463Z,20.27
2018-06-04T09:00:40.155Z,20.40
2018-06-04T09:03:08.843Z,21.20
2018-06-04T09:05:37.508Z,21.10
2018-06-04T09:08:06.169Z,19.33
2018-06-04T09:10:34.824Z,19.27
2018-06-04T09:13:03.502Z,20.63
2018-06-04T09:15:32.148Z,19.93
2018-06-04T09:18:00.882Z,18.67
2018-06-04T09:20:29.532Z,18.70
2018-06-04T09:22:58.172Z,18.70
2018-06-04T09:25:26.856Z,18.90
2018-06-04T09:27:55.495Z,22.37
2018-06-04T09:30:24.188Z,16.53
2018-06-04T09:32:52.889Z,18.13
2018-06-04T09:35:21.519Z,17.27
2018-06-04T09:37:50.199Z,16.43
2018-06-04T09:40:18.888Z,16.40
2018-06-04T09:42:47.563Z,13.73
2018-06-04T09:45:16.276Z,14.87
2018-06-04T09:47:44.944Z,14.47
2018-06-04T09:50:13.679Z,15.23
2018-06-04T09:52:42.316Z,14.80
2018-06-04T09:55:10.957Z,14.77
2018-06-04T09:57:39.645Z,15.60
2018-06-04T10:00:08.389Z,14.10
2018-06-04T10:02:37.021Z,13.83
2018-06-04T10:05:05.675Z,12.90
2018-06-04T10:07:34.328Z,13.30
2018-06-04T10:10:03.441Z,13.93
2018-06-04T10:12:32.140Z,14.33
2018-06-04T10:15:00.841Z,15.10
2018-06-04T10:17:29.575Z,14.87
2018-06-04T10:19:58.243Z,12.70
2018-06-04T10:22:26.967Z,14.23
2018-06-04T10:24:55.575Z,12.73
2018-06-04T10:27:24.266Z,14.90
2018-06-04T10:29:52.979Z,12.80
2018-06-04T10:32:21.626Z,13.10
2018-06-04T10:34:50.308Z,14.07
2018-06-04T10:37:18.968Z,15.80
2018-06-04T10:39:48.504Z,13.53
2018-06-04T10:42:17.132Z,14.20
2018-06-04T10:44:45.794Z,14.07
2018-06-04T10:47:14.456Z,15.43
2018-06-04T10:49:43.096Z,14.40
2018-06-04T10:52:11.768Z,18.27
2018-06-04T10:54:40.448Z,23.70
2018-06-04T10:57:09.129Z,15.50
2018-06-04T10:59:37.841Z,15.60
2018-06-04T11:02:06.449Z,15.73
2018-06-04T11:04:35.105Z,16.20
2018-06-04T11:07:03.834Z,17.10
2018-06-04T11:09:32.721Z,16.70
2018-06-04T11:12:01.436Z,17.07
2018-06-04T11:14:30.074Z,16.37
2018-06-04T11:16:58.775Z,15.90
2018-06-04T11:19:27.426Z,15.60
2018-06-04T11:21:56.048Z,18.13
2018-06-04T11:24:24.801Z,16.57
2018-06-04T11:26:53.408Z,17.70
2018-06-04T11:29:22.111Z,19.93
2018-06-04T11:31:50.876Z,16.63
2018-06-04T11:34:19.543Z,16.37
2018-06-04T11:36:48.248Z,17.77
2018-06-04T11:39:16.884Z,16.33
2018-06-04T11:41:45.540Z,16.60
2018-06-04T11:44:14.296Z,20.40
2018-06-04T11:46:42.975Z,18.23
2018-06-04T11:49:11.663Z,19.00
2018-06-04T11:51:40.372Z,22.13
2018-06-04T11:54:09.060Z,25.03
2018-06-04T11:56:37.774Z,25.37
2018-06-04T11:59:06.447Z,25.13
2018-06-04T12:01:35.095Z,22.80
2018-06-04T12:04:03.820Z,25.00
2018-06-04T12:06:32.468Z,22.67
2018-06-04T12:09:01.135Z,25.90
2018-06-04T12:11:29.875Z,24.67
2018-06-04T12:13:58.495Z,23.70
2018-06-04T12:16:27.183Z,24.80
2018-06-04T12:18:55.869Z,25.23
2018-06-04T12:21:24.617Z,25.47
2018-06-04T12:23:53.263Z,25.47
2018-06-04T12:26:21.883Z,26.60
2018-06-04T12:28:50.652Z,26.87
2018-06-04T12:31:20.145Z,26.27
2018-06-04T12:33:48.999Z,27.30
2018-06-04T12:36:17.683Z,23.53
2018-06-04T12:38:46.544Z,25.77
2018-06-04T12:41:16.024Z,26.20
2018-06-04T12:43:44.675Z,26.30
2018-06-04T12:46:13.354Z,23.13
2018-06-04T12:48:42.799Z,21.00
2018-06-04T12:51:12.211Z,23.83
2018-06-04T12:53:40.941Z,22.27
2018-06-04T12:56:09.688Z,26.20
2018-06-04T12:58:38.301Z,23.53
2018-06-04T13:01:06.981Z,27.60
2018-06-04T13:03:35.699Z,24.27
2018-06-04T13:06:04.307Z,32.47
2018-06-04T13:08:33.064Z,28.13
2018-06-04T13:11:01.727Z,30.40
2018-06-04T13:13:30.583Z,35.10
2018-06-04T13:15:59.330Z,33.33
2018-06-04T13:18:28.055Z,42.80
2018-06-04T13:20:56.815Z,32.63
2018-06-04T13:23:26.396Z,33.60
2018-06-04T13:25:55.240Z,43.90
2018-06-04T13:28:23.907Z,29.57
2018-06-04T13:30:52.543Z,41.33
2018-06-04T13:33:21.166Z,21.27
2018-06-04T13:35:49.831Z,23.03
2018-06-04T13:38:18.668Z,19.00
2018-06-04T13:40:47.380Z,17.50
2018-06-04T13:43:16.103Z,18.57
2018-06-04T13:45:44.732Z,16.77
2018-06-04T13:48:13.366Z,16.03
2018-06-04T13:50:42.041Z,15.60
2018-06-04T13:53:10.686Z,16.50
2018-06-04T13:55:39.409Z,16.97
2018-06-04T13:58:08.197Z,18.43
2018-06-04T14:00:36.824Z,18.57
2018-06-04T14:03:05.534Z,15.50
2018-06-04T14:05:34.276Z,17.00
2018-06-04T14:08:03.289Z,15.03
2018-06-04T14:10:31.968Z,14.60
2018-06-04T14:13:00.592Z,13.00
2018-06-04T14:15:29.439Z,13.73
2018-06-04T14:17:58.127Z,14.33
2018-06-04T14:20:26.783Z,13.00
2018-06-04T14:22:55.428Z,15.53
2018-06-04T14:25:24.234Z,13.20
2018-06-04T14:27:52.931Z,11.97
2018-06-04T14:30:21.653Z,14.57
2018-06-04T14:32:50.277Z,14.70
2018-06-04T14:35:18.951Z,30.67
2018-06-04T14:37:47.593Z,21.17
2018-06-04T14:40:16.281Z,22.73
2018-06-04T14:42:44.973Z,16.03
2018-06-04T14:45:13.611Z,18.43
2018-06-04T14:47:42.300Z,27.03
2018-06-04T14:50:10.917Z,13.43
2018-06-04T14:52:39.563Z,16.37
2018-06-04T14:55:08.171Z,19.30
2018-06-04T14:57:36.804Z,17.50
2018-06-04T15:00:05.487Z,18.47
2018-06-04T15:02:34.188Z,14.93
2018-06-04T15:05:02.877Z,17.00
2018-06-04T15:07:31.583Z,17.43
2018-06-04T15:10:00.237Z,15.77
2018-06-04T15:12:28.858Z,15.00
2018-06-04T15:14:57.563Z,16.20
2018-06-04T15:17:26.242Z,17.00
2018-06-04T15:19:54.916Z,17.23
2018-06-04T15:22:23.604Z,16.70
2018-06-04T15:24:52.608Z,16.37
2018-06-04T15:27:21.248Z,14.90
2018-06-04T15:29:49.927Z,17.33
2018-06-04T15:32:18.643Z,22.07
2018-06-04T15:34:47.251Z,26.53
2018-06-04T15:37:15.999Z,30.47
2018-06-04T15:39:44.729Z,26.97
2018-06-04T15:42:13.372Z,15.97
2018-06-04T15:44:42.024Z,31.30
2018-06-04T15:47:10.699Z,19.20
2018-06-04T15:49:39.375Z,18.53
2018-06-04T15:52:08.041Z,16.57
2018-06-04T15:54:36.683Z,16.33
2018-06-04T15:57:05.360Z,15.67
2018-06-04T15:59:34.239Z,18.10
2018-06-04T16:02:02.946Z,14.57
2018-06-04T16:04:31.618Z,14.53
2018-06-04T16:07:00.264Z,14.93
2018-06-04T16:09:28.968Z,14.13
2018-06-04T16:11:57.603Z,16.47
2018-06-04T16:14:26.219Z,14.40
2018-06-04T16:16:55.177Z,15.03
2018-06-04T16:19:23.831Z,13.90
2018-06-04T16:21:52.472Z,15.67
2018-06-04T16:24:21.191Z,14.40
2018-06-04T16:26:49.849Z,13.90
2018-06-04T16:29:18.527Z,13.97
2018-06-04T16:31:47.213Z,13.33
2018-06-04T16:34:16.050Z,13.47
2018-06-04T16:36:44.701Z,14.07
2018-06-04T16:39:13.366Z,13.50
2018-06-04T16:41:42.030Z,13.83
2018-06-04T16:44:10.679Z,13.90
2018-06-04T16:46:39.360Z,13.60
2018-06-04T16:49:08.139Z,13.33
2018-06-04T16:51:36.847Z,12.80
2018-06-04T16:54:05.719Z,14.87
2018-06-04T16:56:34.367Z,14.43
2018-06-04T16:59:03.074Z,13.03
2018-06-04T17:01:31.764Z,13.53
2018-06-04T17:04:00.447Z,13.33
2018-06-04T17:06:29.143Z,15.63
2018-06-04T17:08:57.791Z,13.97
2018-06-04T17:11:26.475Z,16.33
2018-06-04T17:13:55.149Z,16.37
2018-06-04T17:16:23.817Z,16.53
2018-06-04T17:18:52.471Z,16.07
2018-06-04T17:21:21.125Z,15.10
2018-06-04T17:23:49.800Z,16.07
2018-06-04T17:26:19.207Z,16.07
2018-06-04T17:28:47.899Z,14.10
2018-06-04T17:31:16.626Z,14.43
2018-06-04T17:33:45.485Z,16.00
2018-06-04T17:36:14.080Z,15.43
2018-06-04T17:38:42.711Z,14.47
2018-06-04T17:41:11.389Z,15.80
2018-06-04T17:43:40.142Z,17.40
2018-06-04T17:46:08.843Z,15.37
2018-06-04T17:48:37.471Z,19.83
2018-06-04T17:51:06.147Z,19.40
2018-06-04T17:53:34.803Z,17.67
2018-06-04T17:56:03.495Z,18.63
2018-06-04T17:58:32.179Z,17.73
2018-06-04T18:01:00.890Z,19.30
2018-06-04T18:03:29.542Z,17.27
2018-06-04T18:05:58.151Z,17.90
2018-06-04T18:08:26.871Z,18.33
2018-06-04T18:10:55.592Z,17.33
2018-06-04T18:13:24.519Z,17.33
2018-06-04T18:15:53.223Z,18.53
2018-06-04T18:18:21.880Z,18.03
2018-06-04T18:20:50.539Z,18.30
2018-06-04T18:23:19.181Z,17.80
2018-06-04T18:25:47.867Z,18.10
2018-06-04T18:28:16.503Z,19.43
2018-06-04T18:30:45.157Z,17.43
2018-06-04T18:33:13.917Z,18.20
2018-06-04T18:35:42.578Z,20.80
2018-06-04T18:38:11.218Z,19.97
2018-06-04T18:40:39.899Z,19.10
2018-06-04T18:43:08.572Z,17.80
2018-06-04T18:45:37.199Z,18.57
2018-06-04T18:48:06.359Z,18.17
2018-06-04T18:50:34.999Z,17.10
2018-06-04T18:53:03.648Z,20.47
2018-06-04T18:55:32.306Z,32.97
2018-06-04T18:58:00.956Z,54.70
2018-06-04T19:00:29.599Z,34.53
2018-06-04T19:02:58.223Z,22.30
2018-06-04T19:05:27.001Z,50.93
2018-06-04T19:07:55.660Z,41.80
2018-06-04T19:10:24.286Z,40.23
2018-06-04T19:12:52.955Z,25.07
2018-06-04T19:15:21.852Z,19.10
2018-06-04T19:17:51.098Z,27.27
2018-06-04T19:20:19.747Z,25.03
2018-06-04T19:22:48.451Z,21.70
2018-06-04T19:25:17.212Z,18.77
2018-06-04T19:27:45.871Z,18.20
2018-06-04T19:30:14.512Z,17.63
2018-06-04T19:32:43.161Z,17.90
2018-06-04T19:35:12.003Z,17.50
2018-06-04T19:37:40.633Z,17.30
2018-06-04T19:40:10.404Z,16.07
2018-06-04T19:42:39.068Z,16.73
2018-06-04T19:45:07.772Z,16.20
2018-06-04T19:47:36.439Z,16.80
2018-06-04T19:50:05.251Z,18.53
2018-06-04T19:52:34.078Z,15.23
2018-06-04T19:55:02.767Z,17.30
2018-06-04T19:57:31.423Z,16.47
2018-06-04T20:00:00.071Z,17.37
2018-06-04T20:02:28.758Z,18.53
2018-06-04T20:04:57.442Z,19.30
2018-06-04T20:07:26.095Z,22.90
2018-06-04T20:09:54.782Z,17.10
2018-06-04T20:12:23.427Z,17.67
2018-06-04T20:14:52.055Z,20.13
2018-06-04T20:17:21.041Z,19.50
2018-06-04T20:19:49.701Z,19.80
2018-06-04T20:22:18.348Z,18.67
2018-06-04T20:24:46.995Z,20.47
2018-06-04T20:27:15.667Z,19.17
2018-06-04T20:29:44.303Z,21.97
2018-06-04T20:32:12.978Z,19.53
2018-06-04T20:34:41.620Z,19.20
2018-06-04T20:37:10.256Z,19.87
2018-06-04T20:39:38.964Z,19.77
2018-06-04T20:42:07.604Z,21.17
2018-06-04T20:44:36.263Z,20.60
2018-06-04T20:47:05.060Z,21.40
2018-06-04T20:49:33.656Z,20.90
2018-06-04T20:52:02.315Z,22.07
2018-06-04T20:54:30.963Z,21.97
2018-06-04T20:56:59.635Z,21.47
2018-06-04T20:59:28.274Z,21.63
2018-06-04T21:01:56.975Z,23.67
2018-06-04T21:04:25.608Z,25.97
2018-06-04T21:06:54.321Z,26.57
2018-06-04T21:09:22.988Z,27.93
2018-06-04T21:11:51.775Z,30.57
2018-06-04T21:14:21.137Z,34.33
2018-06-04T21:16:49.958Z,25.10
2018-06-04T21:19:18.585Z,29.77
2018-06-04T21:21:47.251Z,26.63
2018-06-04T21:24:15.957Z,26.07
2018-06-04T21:26:44.673Z,24.63
2018-06-04T21:29:13.401Z,24.10
2018-06-04T21:31:42.109Z,25.70
2018-06-04T21:34:10.796Z,25.87
2018-06-04T21:36:39.522Z,28.97
2018-06-04T21:39:08.581Z,26.43
2018-06-04T21:41:37.450Z,25.27
2018-06-04T21:44:06.091Z,26.13
2018-06-04T21:46:34.848Z,24.20
2018-06-04T21:49:03.596Z,27.03
2018-06-04T21:51:32.228Z,25.57
2018-06-04T21:54:00.940Z,25.43
2018-06-04T21:56:29.744Z,26.17
2018-06-04T21:58:58.333Z,27.50
2018-06-04T22:01:26.971Z,27.23
2018-06-04T22:03:55.631Z,25.80
2018-06-04T22:06:24.315Z,28.27
2018-06-04T22:08:53.028Z,26.53
2018-06-04T22:11:21.716Z,27.33
2018-06-04T22:13:50.414Z,27.43
2018-06-04T22:16:19.040Z,27.67
2018-06-04T22:18:47.697Z,26.17
2018-06-04T22:21:16.420Z,26.70
2018-06-04T22:23:45.077Z,27.77
2018-06-04T22:26:13.703Z,29.00
2018-06-04T22:28:42.375Z,28.00
2018-06-04T22:31:11.128Z,26.87
2018-06-04T22:33:39.896Z,28.90
2018-06-04T22:36:08.559Z,28.70
2018-06-04T22:38:37.393Z,29.00
2018-06-04T22:41:06.180Z,29.80
2018-06-04T22:43:34.791Z,29.47
2018-06-04T22:46:03.473Z,26.90
2018-06-04T22:48:32.172Z,30.70
2018-06-04T22:51:00.820Z,30.73
2018-06-04T22:53:29.475Z,29.93
2018-06-04T22:55:58.123Z,29.27
2018-06-04T22:58:26.768Z,30.07
2018-06-04T23:00:55.380Z,32.37
2018-06-04T23:03:24.043Z,30.10
2018-06-04T23:05:52.727Z,30.10
2018-06-04T23:08:21.617Z,30.00
2018-06-04T23:10:50.274Z,30.30
2018-06-04T23:13:18.980Z,29.60
2018-06-04T23:15:47.651Z,28.97
2018-06-04T23:18:16.289Z,32.00
2018-06-04T23:20:44.927Z,31.30
2018-06-04T23:23:13.591Z,32.40
2018-06-04T23:25:42.264Z,30.07
2018-06-04T23:28:10.888Z,29.33
2018-06-04T23:30:39.558Z,31.90
2018-06-04T23:33:08.178Z,28.93
2018-06-04T23:35:36.778Z,31.30
2018-06-04T23:38:05.446Z,27.40
2018-06-04T23:40:34.115Z,29.83
2018-06-04T23:43:02.859Z,30.37
2018-06-04T23:45:31.588Z,30.17
2018-06-04T23:48:00.248Z,30.30
2018-06-04T23:50:28.915Z,32.53
2018-06-04T23:52:57.537Z,30.73
2018-06-04T23:55:26.232Z,30.90
2018-06-04T23:57:54.852Z,29.80
